sensor_id;sensor_type;location;lat;lon;timestamp;pressure;altitude;pressure_sealevel;temperature;humidity
15604;BME280;7902;49.042;9.092;2022-07-19T00:00:25;99424.69;;;25.28;37.85
15604;BME280;7902;49.042;9.092;2022-07-19T00:02:52;99420.13;;;25.28;37.75
15604;BME280;7902;49.042;9.092;2022-07-19T00:05:18;99431.25;;;25.19;38.10
15604;BME280;7902;49.042;9.092;2022-07-19T00:07:45;99432.28;;;25.18;38.53
15604;BME280;7902;49.042;9.092;2022-07-19T00:10:13;99434.13;;;25.17;38.29
15604;BME280;7902;49.042;9.092;2022-07-19T00:12:40;99425.25;;;25.17;38.50
15604;BME280;7902;49.042;9.092;2022-07-19T00:15:09;99425.88;;;25.19;38.34
15604;BME280;7902;49.042;9.092;2022-07-19T00:17:38;99423.81;;;25.21;38.47
15604;BME280;7902;49.042;9.092;2022-07-19T00:20:05;99432.03;;;25.13;38.45
15604;BME280;7902;49.042;9.092;2022-07-19T00:22:31;99431.94;;;25.00;38.70
15604;BME280;7902;49.042;9.092;2022-07-19T00:24:57;99429.63;;;24.97;38.85
15604;BME280;7902;49.042;9.092;2022-07-19T00:27:23;99426.28;;;24.88;39.09
15604;BME280;7902;49.042;9.092;2022-07-19T00:29:48;99432.84;;;24.85;38.99
15604;BME280;7902;49.042;9.092;2022-07-19T00:32:14;99439.25;;;24.84;38.99
15604;BME280;7902;49.042;9.092;2022-07-19T00:34:40;99433.88;;;24.84;39.09
15604;BME280;7902;49.042;9.092;2022-07-19T00:37:06;99433.63;;;24.79;39.50
15604;BME280;7902;49.042;9.092;2022-07-19T00:39:32;99429.69;;;24.82;39.15
15604;BME280;7902;49.042;9.092;2022-07-19T00:41:58;99429.31;;;24.85;39.33
15604;BME280;7902;49.042;9.092;2022-07-19T00:44:24;99432.78;;;24.79;39.32
15604;BME280;7902;49.042;9.092;2022-07-19T00:46:50;99423.63;;;24.73;39.20
15604;BME280;7902;49.042;9.092;2022-07-19T00:49:16;99428.13;;;24.66;39.39
15604;BME280;7902;49.042;9.092;2022-07-19T00:51:42;99420.59;;;24.76;39.48
15604;BME280;7902;49.042;9.092;2022-07-19T00:54:11;99431.06;;;24.71;39.52
15604;BME280;7902;49.042;9.092;2022-07-19T00:56:37;99426.31;;;24.73;39.43
15604;BME280;7902;49.042;9.092;2022-07-19T00:59:04;99433.53;;;24.73;39.52
15604;BME280;7902;49.042;9.092;2022-07-19T01:01:31;99427.56;;;24.71;39.89
15604;BME280;7902;49.042;9.092;2022-07-19T01:03:58;99426.72;;;24.70;40.04
15604;BME280;7902;49.042;9.092;2022-07-19T01:06:24;99421.72;;;24.67;40.03
15604;BME280;7902;49.042;9.092;2022-07-19T01:08:50;99426.31;;;24.73;39.59
15604;BME280;7902;49.042;9.092;2022-07-19T01:11:16;99427.34;;;24.72;39.69
15604;BME280;7902;49.042;9.092;2022-07-19T01:13:42;99419.28;;;24.72;39.56
15604;BME280;7902;49.042;9.092;2022-07-19T01:16:08;99425.44;;;24.66;39.86
15604;BME280;7902;49.042;9.092;2022-07-19T01:18:34;99421.72;;;24.67;39.90
15604;BME280;7902;49.042;9.092;2022-07-19T01:21:02;99426.31;;;24.73;39.59
15604;BME280;7902;49.042;9.092;2022-07-19T01:23:29;99422.75;;;24.66;39.86
15604;BME280;7902;49.042;9.092;2022-07-19T01:25:55;99426.47;;;24.65;39.92
15604;BME280;7902;49.042;9.092;2022-07-19T01:28:21;99424.38;;;24.61;39.75
15604;BME280;7902;49.042;9.092;2022-07-19T01:30:47;99422.06;;;24.58;40.20
15604;BME280;7902;49.042;9.092;2022-07-19T01:33:13;99425.38;;;24.60;39.86
15604;BME280;7902;49.042;9.092;2022-07-19T01:35:38;99426.66;;;24.64;40.01
15604;BME280;7902;49.042;9.092;2022-07-19T01:38:04;99423.13;;;24.63;39.81
15604;BME280;7902;49.042;9.092;2022-07-19T01:40:30;99426.78;;;24.56;40.09
15604;BME280;7902;49.042;9.092;2022-07-19T01:42:56;99426.22;;;24.60;40.06
15604;BME280;7902;49.042;9.092;2022-07-19T01:45:22;99435.59;;;24.49;40.62
15604;BME280;7902;49.042;9.092;2022-07-19T01:47:48;99435.25;;;24.53;40.09
15604;BME280;7902;49.042;9.092;2022-07-19T01:50:16;99429.97;;;24.44;40.26
15604;BME280;7902;49.042;9.092;2022-07-19T01:52:42;99432.75;;;24.51;40.32
15604;BME280;7902;49.042;9.092;2022-07-19T01:55:08;99426.94;;;24.47;40.41
15604;BME280;7902;49.042;9.092;2022-07-19T01:57:34;99432.03;;;24.42;40.83
15604;BME280;7902;49.042;9.092;2022-07-19T02:00:01;99427.03;;;24.39;40.52
15604;BME280;7902;49.042;9.092;2022-07-19T02:02:27;99432.97;;;24.35;40.94
15604;BME280;7902;49.042;9.092;2022-07-19T02:04:53;99424.94;;;24.35;40.40
15604;BME280;7902;49.042;9.092;2022-07-19T02:07:19;99418.53;;;24.36;40.80
15604;BME280;7902;49.042;9.092;2022-07-19T02:09:45;99419.13;;;24.31;41.26
15604;BME280;7902;49.042;9.092;2022-07-19T02:12:11;99417.44;;;24.30;41.02
15604;BME280;7902;49.042;9.092;2022-07-19T02:14:36;99405.25;;;24.28;41.11
15604;BME280;7902;49.042;9.092;2022-07-19T02:17:02;99416.84;;;24.28;41.06
15604;BME280;7902;49.042;9.092;2022-07-19T02:19:28;99414.16;;;24.28;41.33
15604;BME280;7902;49.042;9.092;2022-07-19T02:21:54;99415.09;;;24.21;41.33
15604;BME280;7902;49.042;9.092;2022-07-19T02:24:20;99410.09;;;24.18;41.31
15604;BME280;7902;49.042;9.092;2022-07-19T02:26:46;99404.91;;;24.16;41.32
15604;BME280;7902;49.042;9.092;2022-07-19T02:29:12;99413.16;;;24.15;41.86
15604;BME280;7902;49.042;9.092;2022-07-19T02:31:38;99411.59;;;24.05;41.85
15604;BME280;7902;49.042;9.092;2022-07-19T02:34:04;99409.56;;;24.08;41.86
15604;BME280;7902;49.042;9.092;2022-07-19T02:36:30;99409.94;;;24.04;42.10
15604;BME280;7902;49.042;9.092;2022-07-19T02:38:56;99407.44;;;24.03;41.98
15604;BME280;7902;49.042;9.092;2022-07-19T02:41:24;99409.94;;;24.04;42.21
15604;BME280;7902;49.042;9.092;2022-07-19T02:43:49;99396.66;;;23.96;42.09
15604;BME280;7902;49.042;9.092;2022-07-19T02:46:15;99402.81;;;23.97;42.41
15604;BME280;7902;49.042;9.092;2022-07-19T02:48:41;99400.53;;;23.94;42.38
15604;BME280;7902;49.042;9.092;2022-07-19T02:51:11;99400.78;;;23.99;42.77
15604;BME280;7902;49.042;9.092;2022-07-19T02:53:37;99388.47;;;24.04;42.09
15604;BME280;7902;49.042;9.092;2022-07-19T02:56:04;99393.31;;;23.94;42.36
15604;BME280;7902;49.042;9.092;2022-07-19T02:58:30;99395.59;;;23.97;42.40
15604;BME280;7902;49.042;9.092;2022-07-19T03:00:56;99395.00;;;23.95;42.46
15604;BME280;7902;49.042;9.092;2022-07-19T03:03:22;99384.63;;;23.92;42.63
15604;BME280;7902;49.042;9.092;2022-07-19T03:06:06;99386.69;;;23.90;42.55
15604;BME280;7902;49.042;9.092;2022-07-19T03:08:32;99384.63;;;23.92;42.56
15604;BME280;7902;49.042;9.092;2022-07-19T03:10:58;99379.38;;;23.84;43.06
15604;BME280;7902;49.042;9.092;2022-07-19T03:13:24;99387.41;;;23.84;42.53
15604;BME280;7902;49.042;9.092;2022-07-19T03:15:50;99385.69;;;23.77;43.06
15604;BME280;7902;49.042;9.092;2022-07-19T03:18:16;99384.84;;;23.76;42.57
15604;BME280;7902;49.042;9.092;2022-07-19T03:20:42;99391.25;;;23.75;42.94
15604;BME280;7902;49.042;9.092;2022-07-19T03:23:07;99390.53;;;23.67;43.28
15604;BME280;7902;49.042;9.092;2022-07-19T03:25:33;99391.53;;;23.66;43.33
15604;BME280;7902;49.042;9.092;2022-07-19T03:27:59;99393.38;;;23.65;43.97
15604;BME280;7902;49.042;9.092;2022-07-19T03:30:25;99398.75;;;23.65;43.47
15604;BME280;7902;49.042;9.092;2022-07-19T03:32:52;99395.78;;;23.60;44.02
15604;BME280;7902;49.042;9.092;2022-07-19T03:35:18;99400.84;;;23.70;43.44
15604;BME280;7902;49.042;9.092;2022-07-19T03:37:46;99393.47;;;23.72;43.32
15604;BME280;7902;49.042;9.092;2022-07-19T03:40:12;99389.25;;;23.63;43.51
15604;BME280;7902;49.042;9.092;2022-07-19T03:42:38;99393.03;;;23.68;43.38
15604;BME280;7902;49.042;9.092;2022-07-19T03:45:05;99395.63;;;23.61;43.86
15604;BME280;7902;49.042;9.092;2022-07-19T03:47:31;99388.31;;;23.55;43.32
15604;BME280;7902;49.042;9.092;2022-07-19T03:49:57;99391.91;;;23.63;43.68
15604;BME280;7902;49.042;9.092;2022-07-19T03:52:24;99392.47;;;23.58;44.04
15604;BME280;7902;49.042;9.092;2022-07-19T03:54:50;99397.47;;;23.61;43.61
15604;BME280;7902;49.042;9.092;2022-07-19T03:57:16;99397.06;;;23.64;43.57
15604;BME280;7902;49.042;9.092;2022-07-19T03:59:42;99398.69;;;23.58;43.56
15604;BME280;7902;49.042;9.092;2022-07-19T04:02:08;99396.56;;;23.54;43.94
15604;BME280;7902;49.042;9.092;2022-07-19T04:04:34;99404.50;;;23.47;43.89
15604;BME280;7902;49.042;9.092;2022-07-19T04:07:00;99404.50;;;23.47;43.87
15604;BME280;7902;49.042;9.092;2022-07-19T04:09:26;99404.56;;;23.39;43.95
15604;BME280;7902;49.042;9.092;2022-07-19T04:11:52;99405.19;;;23.41;44.04
15604;BME280;7902;49.042;9.092;2022-07-19T04:14:18;99411.56;;;23.40;44.31
15604;BME280;7902;49.042;9.092;2022-07-19T04:16:43;99412.41;;;23.41;44.30
15604;BME280;7902;49.042;9.092;2022-07-19T04:19:09;99414.47;;;23.39;43.98
15604;BME280;7902;49.042;9.092;2022-07-19T04:21:35;99412.69;;;23.31;44.09
15604;BME280;7902;49.042;9.092;2022-07-19T04:24:01;99412.41;;;23.41;44.02
15604;BME280;7902;49.042;9.092;2022-07-19T04:26:27;99418.16;;;23.38;44.06
15604;BME280;7902;49.042;9.092;2022-07-19T04:28:53;99419.38;;;23.35;44.55
15604;BME280;7902;49.042;9.092;2022-07-19T04:31:19;99421.84;;;23.37;44.43
15604;BME280;7902;49.042;9.092;2022-07-19T04:33:45;99424.72;;;23.35;44.20
15604;BME280;7902;49.042;9.092;2022-07-19T04:36:11;99420.94;;;23.30;44.54
15604;BME280;7902;49.042;9.092;2022-07-19T04:38:37;99427.47;;;23.27;44.17
15604;BME280;7902;49.042;9.092;2022-07-19T04:41:03;99427.03;;;23.38;44.17
15604;BME280;7902;49.042;9.092;2022-07-19T04:43:28;99423.06;;;23.34;44.80
15604;BME280;7902;49.042;9.092;2022-07-19T04:45:54;99425.53;;;23.36;44.30
15604;BME280;7902;49.042;9.092;2022-07-19T04:48:20;99428.88;;;23.38;45.05
15604;BME280;7902;49.042;9.092;2022-07-19T04:50:46;99433.50;;;23.44;44.55
15604;BME280;7902;49.042;9.092;2022-07-19T04:53:12;99434.50;;;23.43;44.55
15604;BME280;7902;49.042;9.092;2022-07-19T04:55:38;99435.91;;;23.39;44.54
15604;BME280;7902;49.042;9.092;2022-07-19T04:58:04;99428.81;;;23.46;44.37
15604;BME280;7902;49.042;9.092;2022-07-19T05:00:30;99431.59;;;23.52;44.54
15604;BME280;7902;49.042;9.092;2022-07-19T05:02:56;99420.47;;;23.55;44.41
15604;BME280;7902;49.042;9.092;2022-07-19T05:05:23;99420.47;;;23.55;44.44
15604;BME280;7902;49.042;9.092;2022-07-19T05:07:49;99430.75;;;23.52;44.45
15604;BME280;7902;49.042;9.092;2022-07-19T05:10:15;99426.13;;;23.60;44.58
15604;BME280;7902;49.042;9.092;2022-07-19T05:12:41;99418.53;;;23.64;44.58
15604;BME280;7902;49.042;9.092;2022-07-19T05:15:08;99429.25;;;23.64;44.28
15604;BME280;7902;49.042;9.092;2022-07-19T05:17:34;99426.47;;;23.72;44.40
15604;BME280;7902;49.042;9.092;2022-07-19T05:20:00;99427.09;;;23.74;44.34
15604;BME280;7902;49.042;9.092;2022-07-19T05:22:26;99420.25;;;23.86;44.09
15604;BME280;7902;49.042;9.092;2022-07-19T05:24:53;99417.03;;;23.76;44.44
15604;BME280;7902;49.042;9.092;2022-07-19T05:27:19;99415.25;;;23.83;44.34
15604;BME280;7902;49.042;9.092;2022-07-19T05:29:45;99423.13;;;23.85;44.55
15604;BME280;7902;49.042;9.092;2022-07-19T05:32:11;99421.91;;;23.87;44.03
15604;BME280;7902;49.042;9.092;2022-07-19T05:34:37;99427.22;;;24.02;44.01
15604;BME280;7902;49.042;9.092;2022-07-19T05:37:04;99417.41;;;24.09;44.02
15604;BME280;7902;49.042;9.092;2022-07-19T05:39:30;99419.72;;;24.12;43.63
15604;BME280;7902;49.042;9.092;2022-07-19T05:41:56;99414.56;;;24.11;43.89
15604;BME280;7902;49.042;9.092;2022-07-19T05:44:22;99416.66;;;24.15;43.28
15604;BME280;7902;49.042;9.092;2022-07-19T05:46:48;99413.16;;;24.15;43.85
15604;BME280;7902;49.042;9.092;2022-07-19T05:49:14;99417.47;;;24.16;43.47
15604;BME280;7902;49.042;9.092;2022-07-19T05:51:40;99419.16;;;24.17;43.56
15604;BME280;7902;49.042;9.092;2022-07-19T05:54:07;99419.81;;;24.19;43.68
15604;BME280;7902;49.042;9.092;2022-07-19T05:56:34;99421.19;;;24.29;43.16
15604;BME280;7902;49.042;9.092;2022-07-19T05:59:00;99416.38;;;24.25;43.59
15604;BME280;7902;49.042;9.092;2022-07-19T06:01:27;99421.66;;;24.39;43.07
15604;BME280;7902;49.042;9.092;2022-07-19T06:03:58;99414.44;;;24.40;43.08
15604;BME280;7902;49.042;9.092;2022-07-19T06:06:26;99419.06;;;24.46;43.23
15604;BME280;7902;49.042;9.092;2022-07-19T06:08:53;99410.44;;;24.51;42.81
15604;BME280;7902;49.042;9.092;2022-07-19T06:11:19;99417.50;;;24.58;42.86
15604;BME280;7902;49.042;9.092;2022-07-19T06:13:46;99421.28;;;24.64;42.94
15604;BME280;7902;49.042;9.092;2022-07-19T06:16:12;99417.00;;;24.69;42.84
15604;BME280;7902;49.042;9.092;2022-07-19T06:18:39;99417.75;;;24.84;42.59
15604;BME280;7902;49.042;9.092;2022-07-19T06:21:09;99421.84;;;24.80;42.31
15604;BME280;7902;49.042;9.092;2022-07-19T06:23:36;99413.66;;;24.88;42.13
15604;BME280;7902;49.042;9.092;2022-07-19T06:26:03;99416.34;;;24.88;42.53
15604;BME280;7902;49.042;9.092;2022-07-19T06:28:29;99414.16;;;24.99;42.27
15604;BME280;7902;49.042;9.092;2022-07-19T06:30:55;99414.00;;;25.07;42.38
15604;BME280;7902;49.042;9.092;2022-07-19T06:33:21;99407.44;;;25.16;41.46
15604;BME280;7902;49.042;9.092;2022-07-19T06:35:47;99413.91;;;25.21;41.33
15604;BME280;7902;49.042;9.092;2022-07-19T06:38:13;99406.91;;;25.27;40.77
15604;BME280;7902;49.042;9.092;2022-07-19T06:40:40;99407.16;;;25.32;40.95
15604;BME280;7902;49.042;9.092;2022-07-19T06:43:06;99417.09;;;25.38;41.49
15604;BME280;7902;49.042;9.092;2022-07-19T06:45:32;99409.63;;;25.33;41.56
15604;BME280;7902;49.042;9.092;2022-07-19T06:47:58;99409.84;;;25.39;40.78
15604;BME280;7902;49.042;9.092;2022-07-19T06:50:24;99402.47;;;25.47;40.54
15604;BME280;7902;49.042;9.092;2022-07-19T06:52:50;99407.88;;;25.54;40.44
15604;BME280;7902;49.042;9.092;2022-07-19T06:55:16;99401.31;;;25.56;40.54
15604;BME280;7902;49.042;9.092;2022-07-19T06:57:42;99401.53;;;25.61;40.79
15604;BME280;7902;49.042;9.092;2022-07-19T07:00:09;99397.97;;;25.54;42.39
15604;BME280;7902;49.042;9.092;2022-07-19T07:02:36;99395.75;;;25.64;41.77
15604;BME280;7902;49.042;9.092;2022-07-19T07:05:03;99404.25;;;25.68;41.36
15604;BME280;7902;49.042;9.092;2022-07-19T07:07:29;99396.22;;;25.74;41.37
15604;BME280;7902;49.042;9.092;2022-07-19T07:09:55;99392.88;;;25.72;41.79
15604;BME280;7902;49.042;9.092;2022-07-19T07:12:21;99395.19;;;25.82;41.32
15604;BME280;7902;49.042;9.092;2022-07-19T07:14:47;99401.41;;;25.83;40.62
15604;BME280;7902;49.042;9.092;2022-07-19T07:17:13;99391.91;;;25.87;40.24
15604;BME280;7902;49.042;9.092;2022-07-19T07:19:38;99393.16;;;25.91;40.07
15604;BME280;7902;49.042;9.092;2022-07-19T07:22:04;99394.81;;;25.92;39.80
15604;BME280;7902;49.042;9.092;2022-07-19T07:24:30;99397.72;;;25.97;39.99
15604;BME280;7902;49.042;9.092;2022-07-19T07:26:56;99395.22;;;25.95;40.30
15604;BME280;7902;49.042;9.092;2022-07-19T07:29:22;99398.97;;;25.94;40.10
15604;BME280;7902;49.042;9.092;2022-07-19T07:31:48;99400.41;;;25.97;39.57
15604;BME280;7902;49.042;9.092;2022-07-19T07:34:14;99400.44;;;26.03;39.40
15604;BME280;7902;49.042;9.092;2022-07-19T07:36:40;99392.19;;;26.11;39.36
15604;BME280;7902;49.042;9.092;2022-07-19T07:39:06;99388.44;;;26.06;39.68
15604;BME280;7902;49.042;9.092;2022-07-19T07:41:32;99393.22;;;26.10;39.91
15604;BME280;7902;49.042;9.092;2022-07-19T07:43:58;99393.00;;;26.18;39.38
15604;BME280;7902;49.042;9.092;2022-07-19T07:46:23;99386.44;;;26.21;39.51
15604;BME280;7902;49.042;9.092;2022-07-19T07:48:49;99390.94;;;26.20;39.46
15604;BME280;7902;49.042;9.092;2022-07-19T07:51:15;99387.47;;;26.27;39.21
15604;BME280;7902;49.042;9.092;2022-07-19T07:53:41;99382.50;;;26.30;39.17
15604;BME280;7902;49.042;9.092;2022-07-19T07:56:07;99378.78;;;26.38;39.00
15604;BME280;7902;49.042;9.092;2022-07-19T07:58:33;99376.72;;;26.40;39.11
15604;BME280;7902;49.042;9.092;2022-07-19T08:00:59;99373.00;;;26.41;38.86
15604;BME280;7902;49.042;9.092;2022-07-19T08:03:25;99368.63;;;26.46;38.70
15604;BME280;7902;49.042;9.092;2022-07-19T08:05:51;99361.19;;;26.48;38.78
15604;BME280;7902;49.042;9.092;2022-07-19T08:08:17;99370.72;;;26.51;38.69
15604;BME280;7902;49.042;9.092;2022-07-19T08:10:44;99366.34;;;26.56;38.71
15604;BME280;7902;49.042;9.092;2022-07-19T08:13:10;99371.75;;;26.56;38.83
15604;BME280;7902;49.042;9.092;2022-07-19T08:15:37;99369.50;;;26.60;38.43
15604;BME280;7902;49.042;9.092;2022-07-19T08:18:04;99369.88;;;26.63;38.52
15604;BME280;7902;49.042;9.092;2022-07-19T08:20:30;99365.34;;;26.64;38.79
15604;BME280;7902;49.042;9.092;2022-07-19T08:22:56;99369.25;;;26.68;38.38
15604;BME280;7902;49.042;9.092;2022-07-19T08:25:22;99365.94;;;26.73;38.45
15604;BME280;7902;49.042;9.092;2022-07-19T08:27:47;99363.47;;;26.78;38.10
15604;BME280;7902;49.042;9.092;2022-07-19T08:30:14;99363.03;;;26.81;38.33
15604;BME280;7902;49.042;9.092;2022-07-19T08:32:41;99360.13;;;26.89;38.24
15604;BME280;7902;49.042;9.092;2022-07-19T08:35:08;99360.97;;;26.96;37.79
15604;BME280;7902;49.042;9.092;2022-07-19T08:37:35;99359.72;;;26.98;37.84
15604;BME280;7902;49.042;9.092;2022-07-19T08:40:01;99362.84;;;27.02;37.97
15604;BME280;7902;49.042;9.092;2022-07-19T08:42:27;99359.72;;;27.05;37.87
15604;BME280;7902;49.042;9.092;2022-07-19T08:44:54;99360.53;;;27.05;37.70
15604;BME280;7902;49.042;9.092;2022-07-19T08:47:21;99359.72;;;27.05;37.73
15604;BME280;7902;49.042;9.092;2022-07-19T08:49:48;99365.50;;;27.15;37.75
15604;BME280;7902;49.042;9.092;2022-07-19T08:52:16;99358.84;;;27.18;37.47
15604;BME280;7902;49.042;9.092;2022-07-19T08:54:42;99367.34;;;27.21;37.31
15604;BME280;7902;49.042;9.092;2022-07-19T08:57:08;99363.19;;;27.25;36.83
15604;BME280;7902;49.042;9.092;2022-07-19T08:59:52;99353.00;;;27.27;37.22
15604;BME280;7902;49.042;9.092;2022-07-19T09:02:18;99352.16;;;27.33;37.19
15604;BME280;7902;49.042;9.092;2022-07-19T09:04:58;99355.69;;;27.34;37.23
15604;BME280;7902;49.042;9.092;2022-07-19T09:07:24;99349.22;;;27.41;37.35
15604;BME280;7902;49.042;9.092;2022-07-19T09:09:50;99345.50;;;27.42;37.18
15604;BME280;7902;49.042;9.092;2022-07-19T09:12:16;99349.22;;;27.48;36.92
15604;BME280;7902;49.042;9.092;2022-07-19T09:14:52;99348.38;;;27.47;36.97
15604;BME280;7902;49.042;9.092;2022-07-19T09:17:19;99346.09;;;27.58;37.41
15604;BME280;7902;49.042;9.092;2022-07-19T09:19:47;99343.97;;;27.60;37.38
15604;BME280;7902;49.042;9.092;2022-07-19T09:22:17;99345.06;;;27.59;37.14
15604;BME280;7902;49.042;9.092;2022-07-19T09:24:46;99341.91;;;27.62;37.26
15604;BME280;7902;49.042;9.092;2022-07-19T09:27:18;99332.44;;;27.84;35.78
15604;BME280;7902;49.042;9.092;2022-07-19T09:29:47;99328.94;;;28.46;34.10
15604;BME280;7902;49.042;9.092;2022-07-19T09:32:17;99329.50;;;28.98;33.65
15604;BME280;7902;49.042;9.092;2022-07-19T09:34:57;99325.31;;;29.38;32.49
15604;BME280;7902;49.042;9.092;2022-07-19T09:39:56;99325.28;;;29.86;30.91
15604;BME280;7902;49.042;9.092;2022-07-19T09:42:25;99319.75;;;29.81;31.27
15604;BME280;7902;49.042;9.092;2022-07-19T09:45:04;99321.78;;;30.16;30.69
15604;BME280;7902;49.042;9.092;2022-07-19T09:47:35;99321.69;;;30.34;30.62
15604;BME280;7902;49.042;9.092;2022-07-19T09:50:04;99322.09;;;30.49;29.91
15604;BME280;7902;49.042;9.092;2022-07-19T09:52:32;99322.78;;;30.56;29.96
15604;BME280;7902;49.042;9.092;2022-07-19T09:55:00;99321.28;;;30.60;29.91
15604;BME280;7902;49.042;9.092;2022-07-19T09:57:34;99318.91;;;30.64;29.30
15604;BME280;7902;49.042;9.092;2022-07-19T10:00:02;99318.34;;;30.73;29.72
15604;BME280;7902;49.042;9.092;2022-07-19T10:02:34;99317.72;;;30.71;29.46
15604;BME280;7902;49.042;9.092;2022-07-19T10:05:02;99312.91;;;30.97;29.36
15604;BME280;7902;49.042;9.092;2022-07-19T10:07:31;99310.56;;;31.12;29.40
15604;BME280;7902;49.042;9.092;2022-07-19T10:09:58;99313.38;;;31.05;29.58
15604;BME280;7902;49.042;9.092;2022-07-19T10:12:25;99309.13;;;31.09;29.21
15604;BME280;7902;49.042;9.092;2022-07-19T10:14:53;99301.09;;;31.26;29.08
15604;BME280;7902;49.042;9.092;2022-07-19T10:17:38;99306.28;;;31.16;29.04
15604;BME280;7902;49.042;9.092;2022-07-19T10:20:06;99299.59;;;31.47;28.56
15604;BME280;7902;49.042;9.092;2022-07-19T10:22:33;99288.28;;;31.38;28.65
15604;BME280;7902;49.042;9.092;2022-07-19T10:27:34;99288.81;;;31.63;28.54
15604;BME280;7902;49.042;9.092;2022-07-19T10:32:33;99289.09;;;31.78;27.82
15604;BME280;7902;49.042;9.092;2022-07-19T10:35:18;99283.38;;;31.92;27.86
15604;BME280;7902;49.042;9.092;2022-07-19T10:37:47;99281.28;;;32.10;27.11
15604;BME280;7902;49.042;9.092;2022-07-19T10:40:13;99275.63;;;32.00;27.23
15604;BME280;7902;49.042;9.092;2022-07-19T10:43:08;99285.91;;;31.98;27.99
15604;BME280;7902;49.042;9.092;2022-07-19T10:45:36;99276.94;;;31.98;27.68
15604;BME280;7902;49.042;9.092;2022-07-19T10:48:11;99276.00;;;32.37;25.91
15604;BME280;7902;49.042;9.092;2022-07-19T10:56:30;99251.94;;;32.46;26.19
15604;BME280;7902;49.042;9.092;2022-07-19T10:58:57;99253.16;;;32.72;25.15
15604;BME280;7902;49.042;9.092;2022-07-19T11:01:25;99249.22;;;32.62;26.19
15604;BME280;7902;49.042;9.092;2022-07-19T11:03:53;99246.47;;;32.79;25.51
15604;BME280;7902;49.042;9.092;2022-07-19T11:08:46;99245.94;;;32.82;26.04
15604;BME280;7902;49.042;9.092;2022-07-19T11:11:15;99244.16;;;33.09;25.24
15604;BME280;7902;49.042;9.092;2022-07-19T11:13:52;99237.06;;;33.08;25.29
15604;BME280;7902;49.042;9.092;2022-07-19T11:16:18;99237.69;;;32.94;25.87
15604;BME280;7902;49.042;9.092;2022-07-19T11:18:45;99227.88;;;33.15;25.47
15604;BME280;7902;49.042;9.092;2022-07-19T11:21:11;99221.25;;;33.27;24.94
15604;BME280;7902;49.042;9.092;2022-07-19T11:23:39;99223.44;;;33.30;25.35
15604;BME280;7902;49.042;9.092;2022-07-19T11:26:09;99208.09;;;33.46;24.86
15604;BME280;7902;49.042;9.092;2022-07-19T11:28:36;99222.25;;;33.48;25.50
15604;BME280;7902;49.042;9.092;2022-07-19T11:31:14;99218.81;;;33.79;24.19
15604;BME280;7902;49.042;9.092;2022-07-19T11:33:40;99210.84;;;33.73;24.07
15604;BME280;7902;49.042;9.092;2022-07-19T11:36:07;99212.53;;;33.79;24.64
15604;BME280;7902;49.042;9.092;2022-07-19T11:38:41;99211.94;;;33.77;23.99
15604;BME280;7902;49.042;9.092;2022-07-19T11:41:19;99200.81;;;33.78;25.05
15604;BME280;7902;49.042;9.092;2022-07-19T11:46:23;99199.28;;;33.92;23.83
15604;BME280;7902;49.042;9.092;2022-07-19T11:48:55;99195.75;;;33.92;23.85
15604;BME280;7902;49.042;9.092;2022-07-19T11:51:22;99198.44;;;33.87;24.52
15604;BME280;7902;49.042;9.092;2022-07-19T11:53:50;99199.75;;;34.16;23.60
15604;BME280;7902;49.042;9.092;2022-07-19T11:56:26;99194.06;;;34.18;23.61
15604;BME280;7902;49.042;9.092;2022-07-19T11:58:56;99191.41;;;34.28;22.46
15604;BME280;7902;49.042;9.092;2022-07-19T12:01:27;99183.50;;;34.26;23.88
15604;BME280;7902;49.042;9.092;2022-07-19T12:03:55;99180.53;;;34.33;22.97
15604;BME280;7902;49.042;9.092;2022-07-19T12:06:41;99175.72;;;34.50;22.42
15604;BME280;7902;49.042;9.092;2022-07-19T12:09:09;99180.84;;;34.36;22.99
15604;BME280;7902;49.042;9.092;2022-07-19T12:11:49;99179.88;;;34.63;22.54
15604;BME280;7902;49.042;9.092;2022-07-19T12:14:36;99178.16;;;34.42;22.71
15604;BME280;7902;49.042;9.092;2022-07-19T12:17:15;99173.97;;;34.76;22.29
15604;BME280;7902;49.042;9.092;2022-07-19T12:19:46;99171.78;;;34.73;22.76
15604;BME280;7902;49.042;9.092;2022-07-19T12:22:26;99163.59;;;34.73;23.25
15604;BME280;7902;49.042;9.092;2022-07-19T12:24:52;99161.94;;;34.72;23.25
15604;BME280;7902;49.042;9.092;2022-07-19T12:27:18;99159.31;;;34.92;22.55
15604;BME280;7902;49.042;9.092;2022-07-19T12:29:46;99150.59;;;35.00;22.33
15604;BME280;7902;49.042;9.092;2022-07-19T12:32:32;99155.50;;;34.98;22.25
15604;BME280;7902;49.042;9.092;2022-07-19T12:35:06;99145.94;;;35.01;21.95
15604;BME280;7902;49.042;9.092;2022-07-19T12:40:10;99155.25;;;35.15;21.93
15604;BME280;7902;49.042;9.092;2022-07-19T12:42:55;99144.59;;;35.13;22.24
15604;BME280;7902;49.042;9.092;2022-07-19T12:47:55;99141.91;;;34.56;23.00
15604;BME280;7902;49.042;9.092;2022-07-19T12:50:27;99136.03;;;34.22;24.76
15604;BME280;7902;49.042;9.092;2022-07-19T12:52:55;99135.50;;;33.88;24.90
15604;BME280;7902;49.042;9.092;2022-07-19T12:55:23;99135.47;;;33.51;25.36
15604;BME280;7902;49.042;9.092;2022-07-19T12:57:51;99141.25;;;33.28;25.61
15604;BME280;7902;49.042;9.092;2022-07-19T13:00:19;99138.22;;;33.03;26.25
15604;BME280;7902;49.042;9.092;2022-07-19T13:02:47;99132.66;;;32.93;26.71
15604;BME280;7902;49.042;9.092;2022-07-19T13:05:13;99131.22;;;32.85;26.58
15604;BME280;7902;49.042;9.092;2022-07-19T13:07:39;99137.97;;;32.83;26.74
15604;BME280;7902;49.042;9.092;2022-07-19T13:10:06;99129.69;;;32.94;26.25
15604;BME280;7902;49.042;9.092;2022-07-19T13:12:32;99124.00;;;32.74;27.24
15604;BME280;7902;49.042;9.092;2022-07-19T13:14:58;99123.00;;;32.80;27.33
15604;BME280;7902;49.042;9.092;2022-07-19T13:17:24;99115.59;;;32.76;27.41
15604;BME280;7902;49.042;9.092;2022-07-19T13:19:50;99126.50;;;32.76;27.00
15604;BME280;7902;49.042;9.092;2022-07-19T13:22:16;99129.75;;;32.78;27.83
15604;BME280;7902;49.042;9.092;2022-07-19T13:24:42;99116.91;;;32.73;27.47
15604;BME280;7902;49.042;9.092;2022-07-19T13:27:08;99108.13;;;32.88;27.45
15604;BME280;7902;49.042;9.092;2022-07-19T13:29:34;99119.41;;;32.75;27.59
15604;BME280;7902;49.042;9.092;2022-07-19T13:32:00;99109.16;;;33.08;27.14
15604;BME280;7902;49.042;9.092;2022-07-19T13:34:26;99110.81;;;33.09;26.10